createdAt,value
2017-08-06T00:02:15.246Z,100844.52
2017-08-06T00:04:42.655Z,100848.45
2017-08-06T00:07:10.051Z,100841.42
2017-08-06T00:09:37.480Z,100844.29
2017-08-06T00:12:04.875Z,100850.71
2017-08-06T00:14:32.275Z,100855.36
2017-08-06T00:16:59.674Z,100856.60
2017-08-06T00:19:27.080Z,100856.06
2017-08-06T00:21:54.486Z,100854.25
2017-08-06T00:24:22.079Z,100859.64
2017-08-06T00:26:49.479Z,100866.67
2017-08-06T00:29:16.893Z,100867.67
2017-08-06T00:31:44.296Z,100865.08
2017-08-06T00:34:11.703Z,100870.61
2017-08-06T00:36:39.105Z,100872.05
2017-08-06T00:39:06.507Z,100871.45
2017-08-06T00:41:33.916Z,100877.50
2017-08-06T00:44:01.312Z,100882.66
2017-08-06T00:46:28.714Z,100880.27
2017-08-06T00:48:56.118Z,100883.70
2017-08-06T00:51:23.517Z,100886.22
2017-08-06T00:53:50.932Z,100880.70
2017-08-06T00:56:18.331Z,100879.95
2017-08-06T00:58:45.794Z,100882.14
2017-08-06T01:01:13.188Z,100884.56
2017-08-06T01:03:40.587Z,100889.42
2017-08-06T01:06:07.990Z,100898.40
2017-08-06T01:08:35.396Z,100901.55
2017-08-06T01:11:02.802Z,100905.84
2017-08-06T01:13:30.212Z,100908.16
2017-08-06T01:15:57.611Z,100908.67
2017-08-06T01:18:25.007Z,100908.25
2017-08-06T01:20:52.411Z,100906.66
2017-08-06T01:23:19.835Z,100907.63
2017-08-06T01:25:47.231Z,100910.19
2017-08-06T01:28:14.643Z,100914.22
2017-08-06T01:30:42.043Z,100920.72
2017-08-06T01:33:09.447Z,100924.24
2017-08-06T01:35:36.867Z,100918.37
2017-08-06T01:38:04.267Z,100925.95
2017-08-06T01:40:31.664Z,100921.96
2017-08-06T01:42:59.075Z,100922.50
2017-08-06T01:45:26.480Z,100918.84
2017-08-06T01:47:53.887Z,100925.13
2017-08-06T01:50:21.283Z,100928.19
2017-08-06T01:52:48.684Z,100925.41
2017-08-06T01:55:16.083Z,100926.34
2017-08-06T01:57:43.479Z,100928.14
2017-08-06T02:00:10.895Z,100937.59
2017-08-06T02:02:38.307Z,100940.07
2017-08-06T02:05:05.720Z,100940.84
2017-08-06T02:07:33.135Z,100938.31
2017-08-06T02:10:00.534Z,100932.07
2017-08-06T02:12:27.947Z,100938.00
2017-08-06T02:14:55.347Z,100936.89
2017-08-06T02:17:22.743Z,100943.00
2017-08-06T02:19:50.146Z,100947.56
2017-08-06T02:22:17.547Z,100951.47
2017-08-06T02:24:44.967Z,100956.20
2017-08-06T02:27:12.371Z,100957.32
2017-08-06T02:29:39.776Z,100962.83
2017-08-06T02:32:07.190Z,100963.25
2017-08-06T02:34:34.595Z,100960.52
2017-08-06T02:37:02.144Z,100964.79
2017-08-06T02:39:29.558Z,100965.09
2017-08-06T02:41:56.963Z,100961.39
2017-08-06T02:44:24.371Z,100961.44
2017-08-06T02:46:51.772Z,100961.07
2017-08-06T02:49:19.179Z,100962.54
2017-08-06T02:51:46.575Z,100961.59
2017-08-06T02:54:13.979Z,100962.81
2017-08-06T02:56:41.387Z,100966.03
2017-08-06T02:59:08.779Z,100958.99
2017-08-06T03:01:36.219Z,100965.83
2017-08-06T03:04:03.615Z,100967.91
2017-08-06T03:06:31.011Z,100965.50
2017-08-06T03:08:58.415Z,100970.94
2017-08-06T03:11:25.820Z,100971.36
2017-08-06T03:13:53.227Z,100975.86
2017-08-06T03:16:20.627Z,100973.42
2017-08-06T03:18:48.027Z,100970.62
2017-08-06T03:21:15.436Z,100969.33
2017-08-06T03:23:42.832Z,100972.34
2017-08-06T03:26:10.247Z,100976.31
2017-08-06T03:28:37.643Z,100981.74
2017-08-06T03:31:05.044Z,100980.42
2017-08-06T03:33:32.447Z,100984.09
2017-08-06T03:35:59.847Z,100985.13
2017-08-06T03:38:27.264Z,100987.02
2017-08-06T03:40:54.655Z,100991.02
2017-08-06T03:43:22.060Z,100991.80
2017-08-06T03:45:49.476Z,100992.99
2017-08-06T03:48:16.870Z,100997.68
2017-08-06T03:50:44.268Z,100995.02
2017-08-06T03:53:11.674Z,101001.41
2017-08-06T03:55:39.082Z,101001.47
2017-08-06T03:58:06.480Z,101003.80
2017-08-06T04:00:33.895Z,101011.05
2017-08-06T04:03:01.301Z,101010.03
2017-08-06T04:05:29.324Z,101013.94
2017-08-06T04:07:56.715Z,101018.78
2017-08-06T04:10:24.113Z,101023.19
2017-08-06T04:12:51.519Z,101018.71
2017-08-06T04:15:18.925Z,101018.68
2017-08-06T04:17:46.344Z,101024.47
2017-08-06T04:20:13.735Z,101028.80
2017-08-06T04:22:41.168Z,101025.70
2017-08-06T04:25:08.603Z,101034.09
2017-08-06T04:27:36.003Z,101040.66
2017-08-06T04:30:03.419Z,101043.19
2017-08-06T04:32:30.831Z,101037.95
2017-08-06T04:34:58.227Z,101039.75
2017-08-06T04:37:25.643Z,101044.31
2017-08-06T04:39:53.044Z,101044.94
2017-08-06T04:42:20.456Z,101050.22
2017-08-06T04:44:47.860Z,101048.28
2017-08-06T04:47:15.265Z,101054.28
2017-08-06T04:49:42.671Z,101054.95
2017-08-06T04:52:10.077Z,101057.22
2017-08-06T04:54:37.496Z,101056.05
2017-08-06T04:57:04.887Z,101064.80
2017-08-06T04:59:32.287Z,101064.89
2017-08-06T05:01:59.691Z,101068.17
2017-08-06T05:04:27.106Z,101073.63
2017-08-06T05:06:54.520Z,101071.39
2017-08-06T05:09:21.923Z,101075.13
2017-08-06T05:11:49.318Z,101070.83
2017-08-06T05:14:16.727Z,101079.05
2017-08-06T05:16:44.127Z,101079.81
2017-08-06T05:19:11.535Z,101084.52
2017-08-06T05:21:38.937Z,101082.16
2017-08-06T05:24:06.340Z,101086.12
2017-08-06T05:26:33.745Z,101090.27
2017-08-06T05:29:01.139Z,101095.73
2017-08-06T05:31:28.551Z,101101.29
2017-08-06T05:33:55.951Z,101099.65
2017-08-06T05:36:23.351Z,101107.35
2017-08-06T05:38:50.759Z,101108.34
2017-08-06T05:41:18.163Z,101104.42
2017-08-06T05:43:45.575Z,101109.70
2017-08-06T05:46:12.983Z,101108.24
2017-08-06T05:48:40.374Z,101116.55
2017-08-06T05:51:07.779Z,101116.02
2017-08-06T05:53:35.177Z,101121.56
2017-08-06T05:56:02.586Z,101116.23
2017-08-06T05:58:29.988Z,101127.94
2017-08-06T06:00:57.399Z,101128.45
2017-08-06T06:03:24.815Z,101130.89
2017-08-06T06:05:52.216Z,101130.95
2017-08-06T06:08:19.628Z,101143.33
2017-08-06T06:10:47.024Z,101148.53
2017-08-06T06:13:14.433Z,101146.86
2017-08-06T06:15:41.831Z,101144.91
2017-08-06T06:18:09.250Z,101151.09
2017-08-06T06:20:36.654Z,101149.39
2017-08-06T06:23:04.059Z,101154.59
2017-08-06T06:25:31.471Z,101149.30
2017-08-06T06:27:58.859Z,101153.58
2017-08-06T06:30:26.279Z,101149.84
2017-08-06T06:32:53.954Z,101157.88
2017-08-06T06:35:21.371Z,101165.36
2017-08-06T06:37:48.791Z,101165.80
2017-08-06T06:40:16.179Z,101167.38
2017-08-06T06:42:43.627Z,101171.50
2017-08-06T06:45:11.050Z,101171.04
2017-08-06T06:47:38.450Z,101171.97
2017-08-06T06:50:05.850Z,101176.19
2017-08-06T06:52:33.287Z,101177.53
2017-08-06T06:55:00.692Z,101177.48
2017-08-06T06:57:28.143Z,101183.02
2017-08-06T06:59:55.550Z,101188.57
2017-08-06T07:02:23.019Z,101186.77
2017-08-06T07:04:50.460Z,101197.16
2017-08-06T07:07:17.855Z,101197.23
2017-08-06T07:09:45.295Z,101199.71
2017-08-06T07:12:12.752Z,101200.41
2017-08-06T07:14:40.179Z,101203.15
2017-08-06T07:17:07.676Z,101204.79
2017-08-06T07:19:35.071Z,101206.02
2017-08-06T07:22:02.476Z,101203.27
2017-08-06T07:24:29.879Z,101207.36
2017-08-06T07:26:57.300Z,101213.70
2017-08-06T07:29:24.694Z,101207.92
2017-08-06T07:31:52.104Z,101213.17
2017-08-06T07:34:19.503Z,101212.70
2017-08-06T07:36:46.903Z,101213.70
2017-08-06T07:39:14.307Z,101221.01
2017-08-06T07:41:41.751Z,101216.41
2017-08-06T07:44:09.143Z,101217.53
2017-08-06T07:46:36.546Z,101220.73
2017-08-06T07:49:03.960Z,101223.22
2017-08-06T07:51:31.364Z,101221.38
2017-08-06T07:53:58.771Z,101225.00
2017-08-06T07:56:26.168Z,101218.03
2017-08-06T07:58:53.570Z,101224.14
2017-08-06T08:01:20.975Z,101223.78
2017-08-06T08:03:48.380Z,101224.45
2017-08-06T08:06:15.803Z,101219.53
2017-08-06T08:08:43.206Z,101220.66
2017-08-06T08:11:10.603Z,101227.27
2017-08-06T08:13:38.012Z,101221.88
2017-08-06T08:16:05.424Z,101223.09
2017-08-06T08:18:32.823Z,101223.87
2017-08-06T08:21:00.219Z,101220.25
2017-08-06T08:23:27.639Z,101219.67
2017-08-06T08:25:55.039Z,101218.72
2017-08-06T08:28:22.435Z,101224.36
2017-08-06T08:30:49.848Z,101223.94
2017-08-06T08:33:17.245Z,101222.26
2017-08-06T08:35:44.646Z,101227.91
2017-08-06T08:38:12.048Z,101230.94
2017-08-06T08:40:39.679Z,101230.00
2017-08-06T08:43:07.092Z,101228.28
2017-08-06T08:45:34.486Z,101230.61
2017-08-06T08:48:01.899Z,101229.78
2017-08-06T08:50:29.287Z,101231.14
2017-08-06T08:52:56.711Z,101223.26
2017-08-06T08:55:24.115Z,101229.83
2017-08-06T08:57:51.514Z,101230.70
2017-08-06T09:00:18.924Z,101228.90
2017-08-06T09:02:46.321Z,101232.55
2017-08-06T09:05:13.727Z,101241.92
2017-08-06T09:07:41.127Z,101237.91
2017-08-06T09:10:08.530Z,101247.63
2017-08-06T09:12:35.940Z,101236.73
2017-08-06T09:15:03.343Z,101234.02
2017-08-06T09:17:30.747Z,101238.73
2017-08-06T09:19:58.144Z,101234.16
2017-08-06T09:22:25.551Z,101236.68
2017-08-06T09:24:52.957Z,101238.27
2017-08-06T09:27:20.355Z,101241.69
2017-08-06T09:29:47.756Z,101244.22
2017-08-06T09:32:15.160Z,101234.48
2017-08-06T09:34:42.567Z,101232.25
2017-08-06T09:37:09.966Z,101233.81
2017-08-06T09:39:37.363Z,101237.36
2017-08-06T09:42:04.755Z,101236.19
2017-08-06T09:44:32.163Z,101235.86
2017-08-06T09:46:59.564Z,101244.23
2017-08-06T09:49:26.955Z,101235.06
2017-08-06T09:51:54.378Z,101227.32
2017-08-06T09:54:21.753Z,101229.08
2017-08-06T09:56:49.155Z,101235.77
2017-08-06T09:59:16.555Z,101230.63
2017-08-06T10:01:43.953Z,101232.25
2017-08-06T10:04:11.347Z,101226.20
2017-08-06T10:06:38.752Z,101230.47
2017-08-06T10:09:06.147Z,101223.77
2017-08-06T10:11:33.551Z,101233.59
2017-08-06T10:14:00.966Z,101227.38
2017-08-06T10:16:28.362Z,101224.36
2017-08-06T10:18:55.769Z,101219.55
2017-08-06T10:21:23.166Z,101216.59
2017-08-06T10:23:50.583Z,101216.84
2017-08-06T10:26:17.979Z,101218.64
2017-08-06T10:28:45.379Z,101212.07
2017-08-06T10:31:12.782Z,101208.48
2017-08-06T10:33:40.191Z,101209.50
2017-08-06T10:36:07.598Z,101209.62
2017-08-06T10:38:35.007Z,101205.52
2017-08-06T10:41:02.396Z,101206.53
2017-08-06T10:43:29.814Z,101202.41
2017-08-06T10:45:57.223Z,101194.97
2017-08-06T10:48:24.633Z,101199.80
2017-08-06T10:50:52.032Z,101189.17
2017-08-06T10:53:19.453Z,101193.82
2017-08-06T10:55:46.843Z,101189.58
2017-08-06T10:58:14.247Z,101195.54
2017-08-06T11:00:41.650Z,101193.39
2017-08-06T11:03:09.053Z,101193.82
2017-08-06T11:05:36.456Z,101189.74
2017-08-06T11:08:03.851Z,101186.59
2017-08-06T11:10:31.268Z,101194.00
2017-08-06T11:12:58.664Z,101190.36
2017-08-06T11:15:26.069Z,101188.86
2017-08-06T11:17:53.477Z,101189.78
2017-08-06T11:20:20.876Z,101187.70
2017-08-06T11:22:48.290Z,101178.97
2017-08-06T11:25:15.691Z,101179.34
2017-08-06T11:27:43.091Z,101182.44
2017-08-06T11:30:10.495Z,101178.05
2017-08-06T11:32:37.900Z,101169.83
2017-08-06T11:35:05.310Z,101172.67
2017-08-06T11:37:32.708Z,101175.05
2017-08-06T11:40:00.115Z,101169.77
2017-08-06T11:42:27.523Z,101173.22
2017-08-06T11:44:54.927Z,101164.36
2017-08-06T11:47:22.331Z,101161.30
2017-08-06T11:49:49.739Z,101162.20
2017-08-06T11:52:17.151Z,101158.83
2017-08-06T11:54:44.552Z,101156.28
2017-08-06T11:57:11.947Z,101159.34
2017-08-06T11:59:39.351Z,101155.02
2017-08-06T12:02:06.748Z,101157.02
2017-08-06T12:04:34.159Z,101159.09
2017-08-06T12:07:01.561Z,101157.88
2017-08-06T12:09:28.966Z,101156.00
2017-08-06T12:11:56.363Z,101153.77
2017-08-06T12:14:23.774Z,101156.28
2017-08-06T12:16:52.008Z,101156.96
2017-08-06T12:19:19.411Z,101149.00
2017-08-06T12:21:46.809Z,101155.56
2017-08-06T12:24:14.216Z,101155.78
2017-08-06T12:26:41.619Z,101156.13
2017-08-06T12:29:09.028Z,101152.23
2017-08-06T12:31:36.436Z,101155.21
2017-08-06T12:34:03.839Z,101153.70
2017-08-06T12:36:31.242Z,101159.45
2017-08-06T12:38:58.654Z,101156.64
2017-08-06T12:41:26.046Z,101161.51
2017-08-06T12:43:53.459Z,101160.91
2017-08-06T12:46:20.855Z,101161.82
2017-08-06T12:48:48.272Z,101155.02
2017-08-06T12:51:15.671Z,101148.89
2017-08-06T12:53:43.071Z,101149.43
2017-08-06T12:56:10.480Z,101145.66
2017-08-06T12:58:37.880Z,101152.93
2017-08-06T13:01:05.284Z,101155.25
2017-08-06T13:03:32.702Z,101151.03
2017-08-06T13:06:00.094Z,101149.26
2017-08-06T13:08:27.503Z,101155.03
2017-08-06T13:10:54.903Z,101149.53
2017-08-06T13:13:22.314Z,101153.45
2017-08-06T13:15:49.714Z,101149.30
2017-08-06T13:18:17.116Z,101153.23
2017-08-06T13:20:44.529Z,101151.91
2017-08-06T13:23:11.940Z,101142.78
2017-08-06T13:25:39.335Z,101143.27
2017-08-06T13:28:06.751Z,101144.02
2017-08-06T13:30:34.146Z,101134.55
2017-08-06T13:33:01.556Z,101138.89
2017-08-06T13:35:29.583Z,101132.56
2017-08-06T13:37:56.976Z,101127.17
2017-08-06T13:40:24.411Z,101139.19
2017-08-06T13:42:51.808Z,101141.88
2017-08-06T13:45:19.234Z,101139.32
2017-08-06T13:47:46.631Z,101134.81
2017-08-06T13:50:14.032Z,101133.27
2017-08-06T13:52:41.442Z,101123.89
2017-08-06T13:55:08.848Z,101124.02
2017-08-06T13:57:36.254Z,101129.20
2017-08-06T14:00:03.651Z,101127.95
2017-08-06T14:02:31.056Z,101132.80
2017-08-06T14:04:58.461Z,101128.02
2017-08-06T14:07:25.868Z,101134.03
2017-08-06T14:09:53.262Z,101125.48
2017-08-06T14:12:20.663Z,101125.63
2017-08-06T14:14:48.060Z,101127.75
2017-08-06T14:17:15.500Z,101130.34
2017-08-06T14:19:42.896Z,101137.39
2017-08-06T14:22:10.296Z,101131.09
2017-08-06T14:24:37.717Z,101135.69
2017-08-06T14:27:05.120Z,101135.63
2017-08-06T14:29:32.523Z,101130.69
2017-08-06T14:31:59.949Z,101138.86
2017-08-06T14:34:27.339Z,101132.55
2017-08-06T14:36:54.743Z,101136.41
2017-08-06T14:39:22.164Z,101127.81
2017-08-06T14:41:49.568Z,101126.20
2017-08-06T14:44:16.956Z,101125.64
2017-08-06T14:46:44.392Z,101118.30
2017-08-06T14:49:11.792Z,101122.08
2017-08-06T14:51:39.196Z,101122.23
2017-08-06T14:54:06.608Z,101127.26
2017-08-06T14:56:34.000Z,101118.54
2017-08-06T14:59:01.416Z,101121.14
2017-08-06T15:01:28.844Z,101121.94
2017-08-06T15:03:56.231Z,101122.78
2017-08-06T15:06:23.647Z,101124.27
2017-08-06T15:08:51.047Z,101124.66
2017-08-06T15:11:18.464Z,101113.11
2017-08-06T15:13:45.883Z,101119.91
2017-08-06T15:16:13.293Z,101125.77
2017-08-06T15:18:40.727Z,101126.30
2017-08-06T15:21:08.122Z,101122.47
2017-08-06T15:23:35.550Z,101127.34
2017-08-06T15:26:02.959Z,101125.58
2017-08-06T15:28:30.395Z,101125.83
2017-08-06T15:30:57.806Z,101126.91
2017-08-06T15:33:25.227Z,101115.50
2017-08-06T15:35:52.622Z,101117.52
2017-08-06T15:38:20.053Z,101121.22
2017-08-06T15:40:47.443Z,101124.53
2017-08-06T15:43:14.855Z,101123.89
2017-08-06T15:45:42.263Z,101127.69
2017-08-06T15:48:09.658Z,101129.72
2017-08-06T15:50:37.107Z,101122.38
2017-08-06T15:53:04.512Z,101121.84
2017-08-06T15:55:31.915Z,101122.93
2017-08-06T15:57:59.319Z,101118.98
2017-08-06T16:00:26.727Z,101118.41
2017-08-06T16:02:54.128Z,101116.77
2017-08-06T16:05:21.523Z,101117.72
2017-08-06T16:07:48.932Z,101118.83
2017-08-06T16:10:16.333Z,101113.93
2017-08-06T16:12:43.738Z,101115.30
2017-08-06T16:15:11.143Z,101103.98
2017-08-06T16:17:38.567Z,101114.59
2017-08-06T16:20:05.964Z,101113.59
2017-08-06T16:22:33.390Z,101105.79
2017-08-06T16:25:01.305Z,101109.61
2017-08-06T16:27:28.726Z,101104.97
2017-08-06T16:29:56.140Z,101098.30
2017-08-06T16:32:23.566Z,101105.94
2017-08-06T16:34:50.991Z,101110.95
2017-08-06T16:37:18.400Z,101104.95
2017-08-06T16:39:45.804Z,101104.19
2017-08-06T16:42:13.271Z,101107.08
2017-08-06T16:44:40.668Z,101093.88
2017-08-06T16:47:08.071Z,101104.51
2017-08-06T16:49:35.472Z,101094.29
2017-08-06T16:52:02.915Z,101095.78
2017-08-06T16:54:30.314Z,101092.52
2017-08-06T16:56:57.743Z,101097.00
2017-08-06T16:59:25.159Z,101097.42
2017-08-06T17:01:52.590Z,101092.95
2017-08-06T17:04:19.993Z,101089.84
2017-08-06T17:06:47.402Z,101085.77
2017-08-06T17:09:14.841Z,101087.80
2017-08-06T17:11:42.232Z,101082.20
2017-08-06T17:14:09.639Z,101083.05
2017-08-06T17:16:37.056Z,101084.40
2017-08-06T17:19:04.458Z,101083.70
2017-08-06T17:21:31.846Z,101082.09
2017-08-06T17:23:59.278Z,101078.41
2017-08-06T17:26:26.696Z,101079.62
2017-08-06T17:28:54.137Z,101083.53
2017-08-06T17:31:21.540Z,101080.94
2017-08-06T17:33:48.972Z,101086.20
2017-08-06T17:36:16.442Z,101085.40
2017-08-06T17:38:43.831Z,101080.50
2017-08-06T17:41:11.232Z,101073.95
2017-08-06T17:43:38.627Z,101080.07
2017-08-06T17:46:06.032Z,101074.20
2017-08-06T17:48:33.448Z,101074.34
2017-08-06T17:51:00.840Z,101083.56
2017-08-06T17:53:28.235Z,101084.36
2017-08-06T17:55:55.643Z,101085.02
2017-08-06T17:58:23.034Z,101084.47
2017-08-06T18:00:50.436Z,101084.70
2017-08-06T18:03:17.834Z,101081.30
2017-08-06T18:05:45.234Z,101074.75
2017-08-06T18:08:12.632Z,101070.67
2017-08-06T18:10:40.047Z,101072.66
2017-08-06T18:13:07.443Z,101071.77
2017-08-06T18:15:34.840Z,101071.70
2017-08-06T18:18:02.243Z,101075.59
2017-08-06T18:20:29.639Z,101069.52
2017-08-06T18:22:57.053Z,101068.09
2017-08-06T18:25:24.457Z,101073.81
2017-08-06T18:27:51.863Z,101079.28
2017-08-06T18:30:19.255Z,101077.45
2017-08-06T18:32:46.659Z,101078.61
2017-08-06T18:35:14.058Z,101072.56
2017-08-06T18:37:41.468Z,101068.42
2017-08-06T18:40:08.867Z,101072.52
2017-08-06T18:42:36.275Z,101070.54
2017-08-06T18:45:03.682Z,101072.81
2017-08-06T18:47:31.096Z,101074.42
2017-08-06T18:49:58.492Z,101074.95
2017-08-06T18:52:25.895Z,101071.69
2017-08-06T18:54:53.298Z,101076.03
2017-08-06T18:57:20.711Z,101074.52
2017-08-06T18:59:48.111Z,101081.52
2017-08-06T19:02:15.511Z,101072.95
2017-08-06T19:04:42.916Z,101069.73
2017-08-06T19:07:10.319Z,101076.59
2017-08-06T19:09:37.724Z,101072.27
2017-08-06T19:12:05.144Z,101077.52
2017-08-06T19:14:32.548Z,101079.38
2017-08-06T19:16:59.962Z,101079.06
2017-08-06T19:19:27.363Z,101081.89
2017-08-06T19:21:54.787Z,101084.70
2017-08-06T19:24:22.191Z,101082.28
2017-08-06T19:26:49.592Z,101089.64
2017-08-06T19:29:16.995Z,101095.00
2017-08-06T19:31:44.407Z,101091.35
2017-08-06T19:34:11.808Z,101094.13
2017-08-06T19:36:39.216Z,101098.31
2017-08-06T19:39:06.616Z,101095.34
2017-08-06T19:41:34.026Z,101101.93
2017-08-06T19:44:01.423Z,101103.39
2017-08-06T19:46:28.828Z,101104.25
2017-08-06T19:48:56.239Z,101105.92
2017-08-06T19:51:23.644Z,101103.23
2017-08-06T19:53:51.076Z,101099.47
2017-08-06T19:56:18.481Z,101100.11
2017-08-06T19:58:45.879Z,101098.37
2017-08-06T20:01:13.284Z,101103.84
2017-08-06T20:03:40.691Z,101100.75
2017-08-06T20:06:08.098Z,101103.05
2017-08-06T20:08:35.493Z,101101.83
2017-08-06T20:11:02.905Z,101099.19
2017-08-06T20:13:30.307Z,101098.73
2017-08-06T20:15:57.719Z,101097.02
2017-08-06T20:18:25.115Z,101093.81
2017-08-06T20:20:52.527Z,101101.13
2017-08-06T20:23:19.923Z,101095.67
2017-08-06T20:25:47.334Z,101099.48
2017-08-06T20:28:14.729Z,101098.58
2017-08-06T20:30:42.134Z,101100.12
2017-08-06T20:33:09.543Z,101101.91
2017-08-06T20:35:36.956Z,101099.71
2017-08-06T20:38:04.356Z,101092.59
2017-08-06T20:40:31.767Z,101089.11
2017-08-06T20:42:59.159Z,101093.32
2017-08-06T20:45:26.571Z,101089.70
2017-08-06T20:47:53.979Z,101091.44
2017-08-06T20:50:21.401Z,101092.15
2017-08-06T20:52:48.790Z,101092.15
2017-08-06T20:55:16.196Z,101089.16
2017-08-06T20:57:43.611Z,101092.09
2017-08-06T21:00:11.012Z,101087.69
2017-08-06T21:02:38.408Z,101087.04
2017-08-06T21:05:05.812Z,101090.87
2017-08-06T21:07:33.211Z,101084.91
2017-08-06T21:10:00.620Z,101089.07
2017-08-06T21:12:28.015Z,101088.48
2017-08-06T21:14:55.429Z,101090.05
2017-08-06T21:17:22.822Z,101085.02
2017-08-06T21:19:50.221Z,101087.14
2017-08-06T21:22:17.628Z,101083.73
2017-08-06T21:24:45.031Z,101087.41
2017-08-06T21:27:12.451Z,101085.89
2017-08-06T21:29:39.857Z,101080.52
2017-08-06T21:32:07.260Z,101079.52
2017-08-06T21:34:34.668Z,101080.69
2017-08-06T21:37:02.062Z,101080.73
2017-08-06T21:39:29.471Z,101083.08
2017-08-06T21:41:56.871Z,101085.83
2017-08-06T21:44:24.283Z,101086.12
2017-08-06T21:46:51.680Z,101087.72
2017-08-06T21:49:19.095Z,101083.02
2017-08-06T21:51:46.496Z,101087.14
2017-08-06T21:54:13.903Z,101083.69
2017-08-06T21:56:41.303Z,101085.20
2017-08-06T21:59:08.703Z,101089.91
2017-08-06T22:01:36.119Z,101080.41
2017-08-06T22:04:03.511Z,101085.91
2017-08-06T22:06:30.923Z,101083.39
2017-08-06T22:08:58.332Z,101083.77
2017-08-06T22:11:25.747Z,101079.47
2017-08-06T22:13:53.144Z,101080.34
2017-08-06T22:16:20.537Z,101079.55
2017-08-06T22:18:47.951Z,101080.64
2017-08-06T22:21:15.347Z,101084.62
2017-08-06T22:23:42.770Z,101084.70
2017-08-06T22:26:10.179Z,101080.38
2017-08-06T22:28:37.574Z,101082.84
2017-08-06T22:31:04.978Z,101083.40
2017-08-06T22:33:32.387Z,101082.85
2017-08-06T22:35:59.786Z,101083.66
2017-08-06T22:38:27.191Z,101084.49
2017-08-06T22:40:54.597Z,101085.08
2017-08-06T22:43:21.994Z,101090.05
2017-08-06T22:45:49.401Z,101086.72
2017-08-06T22:48:16.797Z,101079.83
2017-08-06T22:50:44.191Z,101079.91
2017-08-06T22:53:11.595Z,101079.53
2017-08-06T22:55:38.990Z,101076.60
2017-08-06T22:58:06.402Z,101071.98
2017-08-06T23:00:33.813Z,101069.19
2017-08-06T23:03:01.211Z,101073.55
2017-08-06T23:05:28.627Z,101071.78
2017-08-06T23:07:56.028Z,101063.91
2017-08-06T23:10:23.435Z,101062.15
2017-08-06T23:12:50.835Z,101064.36
2017-08-06T23:15:18.248Z,101054.58
2017-08-06T23:17:45.642Z,101056.82
2017-08-06T23:20:13.062Z,101058.23
2017-08-06T23:22:40.468Z,101053.39
2017-08-06T23:25:07.868Z,101054.14
2017-08-06T23:27:35.272Z,101051.61
2017-08-06T23:30:02.675Z,101058.98
2017-08-06T23:32:30.091Z,101054.53
2017-08-06T23:34:57.487Z,101048.42
2017-08-06T23:37:24.883Z,101050.30
2017-08-06T23:39:52.439Z,101042.00
2017-08-06T23:42:19.836Z,101039.55
2017-08-06T23:44:47.244Z,101043.81
2017-08-06T23:47:14.648Z,101043.13
2017-08-06T23:49:42.048Z,101044.20
2017-08-06T23:52:09.456Z,101036.42
2017-08-06T23:54:36.856Z,101036.03
2017-08-06T23:57:04.271Z,101029.49
2017-08-06T23:59:31.667Z,101021.38
